Time;durP1;ratioP1;P1;durP2;ratioP2;P2;SDS_P1;SDS_P2;PMS_P1;PMS_P2;Temp;Humidity;BMP_temperature;BMP_pressure;BME280_temperature;BME280_humidity;BME280_pressure;Samples;Min_cycle;Max_cycle;Signal;HPM_P1;HPM_P2
2024/01/03 00:01:26;;;;;;;9.83;2.47;;;11.70;99.90;;;;;;5134165;28;20915;-70
2024/01/03 00:03:55;;;;;;;7.93;1.80;;;11.70;99.90;;;;;;5134447;28;20478;-70
2024/01/03 00:06:22;;;;;;;11.03;1.87;;;11.70;99.90;;;;;;5135149;28;20476;-70
2024/01/03 00:08:49;;;;;;;8.97;2.30;;;11.60;99.90;;;;;;5134550;28;20446;-70
2024/01/03 00:11:21;;;;;;;7.60;1.70;;;11.70;99.90;;;;;;5134660;28;20462;-70
2024/01/03 00:14:06;;;;;;;5.40;1.60;;;11.60;99.90;;;;;;5134384;28;20433;-71
2024/01/03 00:16:34;;;;;;;9.57;2.50;;;11.70;99.90;;;;;;5121421;28;20453;-70
2024/01/03 00:19:03;;;;;;;7.13;1.50;;;11.70;99.90;;;;;;5134117;28;20437;-70
2024/01/03 00:21:31;;;;;;;11.07;2.60;;;11.70;99.90;;;;;;5116125;28;20453;-70
2024/01/03 00:23:59;;;;;;;10.20;2.00;;;11.60;99.90;;;;;;5134314;28;20530;-70
2024/01/03 00:26:29;;;;;;;7.63;1.70;;;11.60;99.90;;;;;;5116400;28;20445;-70
2024/01/03 00:28:56;;;;;;;3.83;1.50;;;11.70;99.90;;;;;;5134205;28;20445;-70
2024/01/03 00:31:41;;;;;;;5.47;1.43;;;11.70;99.90;;;;;;5133724;28;20984;-70
2024/01/03 00:34:36;;;;;;;7.80;1.67;;;11.70;99.90;;;;;;5134188;28;20471;-70
2024/01/03 00:37:24;;;;;;;5.93;2.20;;;11.70;99.90;;;;;;5133942;28;20442;-70
2024/01/03 00:39:52;;;;;;;10.00;1.80;;;11.60;99.90;;;;;;5133932;28;20465;-70
2024/01/03 00:42:19;;;;;;;10.13;2.67;;;11.60;99.90;;;;;;5115440;28;20448;-70
2024/01/03 00:44:46;;;;;;;5.50;1.70;;;11.60;99.90;;;;;;5134022;28;20474;-70
2024/01/03 00:47:13;;;;;;;7.33;1.53;;;11.60;99.90;;;;;;5115845;28;20446;-70
2024/01/03 00:49:42;;;;;;;7.43;1.60;;;11.60;99.90;;;;;;5135260;27;21020;-70
2024/01/03 00:52:11;;;;;;;9.50;1.60;;;11.60;99.90;;;;;;5137583;27;20915;-70
2024/01/03 00:54:39;;;;;;;9.60;2.00;;;11.60;99.90;;;;;;5137573;27;20957;-70
2024/01/03 00:57:06;;;;;;;9.67;2.00;;;11.60;99.90;;;;;;5137246;27;20953;-70
2024/01/03 00:59:37;;;;;;;9.40;1.90;;;11.60;99.90;;;;;;5136392;27;20466;-70
2024/01/03 01:02:04;;;;;;;8.47;2.20;;;11.60;99.90;;;;;;5137485;27;20422;-70
2024/01/03 01:04:32;;;;;;;11.50;2.07;;;11.60;99.90;;;;;;5137058;27;21013;-70
2024/01/03 01:07:00;;;;;;;5.30;1.67;;;11.60;99.90;;;;;;5137529;27;20441;-70
2024/01/03 01:09:27;;;;;;;5.27;1.10;;;11.60;99.90;;;;;;5137003;27;20966;-70
2024/01/03 01:11:54;;;;;;;5.30;1.60;;;11.50;99.90;;;;;;5137362;27;20442;-70
2024/01/03 01:14:21;;;;;;;8.37;2.30;;;11.50;99.90;;;;;;5137645;27;20433;-70
2024/01/03 01:16:47;;;;;;;4.40;1.33;;;11.50;99.90;;;;;;5148717;27;20442;-70
2024/01/03 01:19:14;;;;;;;8.77;2.10;;;11.50;99.90;;;;;;5141066;27;20792;-70
2024/01/03 01:21:42;;;;;;;3.70;1.30;;;11.50;99.90;;;;;;5120328;27;20931;-70
2024/01/03 01:24:11;;;;;;;10.17;2.03;;;11.50;99.90;;;;;;5137115;27;20561;-70
2024/01/03 01:26:37;;;;;;;9.43;3.97;;;11.50;99.90;;;;;;5137463;27;20477;-70
2024/01/03 01:29:05;;;;;;;7.87;2.13;;;11.50;99.90;;;;;;5137769;27;20445;-70
2024/01/03 01:31:34;;;;;;;6.47;1.63;;;11.40;99.90;;;;;;5143089;27;20433;-70
2024/01/03 01:34:00;;;;;;;5.30;1.50;;;11.40;99.90;;;;;;5145321;27;20453;-70
2024/01/03 01:36:27;;;;;;;6.87;1.30;;;11.40;99.90;;;;;;5143809;27;20449;-70
2024/01/03 01:38:54;;;;;;;5.97;1.90;;;11.40;99.90;;;;;;5143829;27;20450;-70
2024/01/03 01:41:22;;;;;;;8.17;1.50;;;11.40;99.90;;;;;;5142865;27;20516;-70
2024/01/03 01:43:49;;;;;;;6.50;1.60;;;11.40;99.90;;;;;;5142411;27;20484;-70
2024/01/03 01:46:17;;;;;;;5.77;1.90;;;11.50;99.90;;;;;;5139977;27;20466;-70
2024/01/03 01:48:44;;;;;;;5.37;1.80;;;11.40;99.90;;;;;;5138778;27;20442;-70
2024/01/03 01:51:12;;;;;;;8.50;1.20;;;11.40;99.90;;;;;;5139430;27;20831;-70
2024/01/03 01:53:39;;;;;;;5.67;1.50;;;11.40;99.90;;;;;;5138930;27;20442;-70
2024/01/03 01:56:08;;;;;;;11.97;1.93;;;11.40;99.90;;;;;;5138041;27;20459;-70
2024/01/03 01:58:37;;;;;;;7.10;1.63;;;11.40;99.90;;;;;;5138543;27;20445;-69
2024/01/03 02:01:05;;;;;;;5.67;1.10;;;11.30;99.90;;;;;;5137434;27;20458;-70
2024/01/03 02:03:32;;;;;;;4.20;1.30;;;11.40;99.90;;;;;;5137775;27;20809;-70
2024/01/03 02:05:58;;;;;;;4.23;1.10;;;11.30;99.90;;;;;;5136962;27;20481;-70
2024/01/03 02:08:25;;;;;;;7.20;1.57;;;11.30;99.90;;;;;;5136788;27;20438;-70
2024/01/03 02:10:52;;;;;;;7.10;1.53;;;11.30;99.90;;;;;;5118649;27;20461;-70
2024/01/03 02:13:19;;;;;;;7.00;1.80;;;11.40;99.90;;;;;;5137311;27;20446;-70
2024/01/03 02:15:47;;;;;;;6.87;2.17;;;11.40;99.90;;;;;;5137135;27;20430;-70
2024/01/03 02:18:15;;;;;;;6.33;1.40;;;11.40;99.90;;;;;;5137085;27;20840;-70
2024/01/03 02:20:44;;;;;;;4.13;1.13;;;11.30;99.90;;;;;;5136915;27;20466;-70
2024/01/03 02:23:12;;;;;;;4.00;1.20;;;11.30;99.90;;;;;;5136424;27;20446;-70
2024/01/03 02:25:40;;;;;;;3.73;1.20;;;11.30;99.90;;;;;;5118082;27;20854;-70
2024/01/03 02:28:09;;;;;;;5.37;1.50;;;11.30;99.90;;;;;;5136356;27;20445;-70
2024/01/03 02:30:37;;;;;;;5.13;1.63;;;11.30;99.90;;;;;;5136216;27;20545;-70
2024/01/03 02:33:04;;;;;;;5.63;1.33;;;11.30;99.90;;;;;;5135976;27;20442;-70
2024/01/03 02:35:30;;;;;;;3.87;1.07;;;11.30;99.90;;;;;;5136583;27;20434;-70
2024/01/03 02:37:57;;;;;;;1.13;0.90;;;11.30;99.90;;;;;;5137570;27;20508;-70
2024/01/03 02:40:25;;;;;;;6.03;1.10;;;11.30;99.90;;;;;;5135955;27;20481;-70
2024/01/03 02:42:52;;;;;;;10.27;1.50;;;11.30;99.90;;;;;;5136228;27;20450;-70
2024/01/03 02:45:19;;;;;;;7.17;1.53;;;11.30;99.90;;;;;;5136384;27;20474;-70
2024/01/03 02:47:44;;;;;;;3.17;1.10;;;11.30;99.90;;;;;;5135930;27;20441;-70
2024/01/03 02:50:11;;;;;;;3.70;1.00;;;11.30;99.90;;;;;;5135803;27;20997;-70
2024/01/03 02:52:38;;;;;;;4.90;1.40;;;11.30;99.90;;;;;;5135919;27;20204;-70
2024/01/03 02:55:05;;;;;;;4.93;1.67;;;11.30;99.90;;;;;;5136285;27;20434;-70
2024/01/03 02:57:34;;;;;;;8.20;2.20;;;11.30;99.90;;;;;;5117725;27;20461;-70
2024/01/03 03:00:00;;;;;;;4.00;1.50;;;11.30;99.90;;;;;;5135612;27;20465;-70
2024/01/03 03:02:27;;;;;;;3.80;1.10;;;11.30;99.90;;;;;;5135415;27;20438;-70
2024/01/03 03:04:54;;;;;;;6.63;1.20;;;11.30;99.90;;;;;;5135648;27;20477;-70
2024/01/03 03:07:20;;;;;;;9.13;1.53;;;11.30;99.90;;;;;;5135654;27;20441;-70
2024/01/03 03:09:47;;;;;;;2.53;0.70;;;11.30;99.90;;;;;;5134904;27;20467;-70
2024/01/03 03:12:14;;;;;;;3.70;1.00;;;11.30;99.90;;;;;;5134364;27;20434;-70
2024/01/03 03:14:42;;;;;;;4.90;1.00;;;11.20;99.90;;;;;;5135710;27;20500;-70
2024/01/03 03:17:09;;;;;;;3.43;0.90;;;11.20;99.90;;;;;;5117290;27;20434;-70
2024/01/03 03:19:36;;;;;;;2.57;1.13;;;11.20;99.90;;;;;;5135231;27;20481;-70
2024/01/03 03:22:03;;;;;;;3.03;1.20;;;11.30;99.90;;;;;;5135236;27;20546;-70
2024/01/03 03:24:30;;;;;;;7.37;1.80;;;11.20;99.90;;;;;;5134975;27;20481;-70
2024/01/03 03:26:57;;;;;;;6.13;1.20;;;11.20;99.90;;;;;;5134727;27;20935;-70
2024/01/03 03:29:24;;;;;;;4.63;1.47;;;11.20;99.90;;;;;;5134556;27;20468;-70
2024/01/03 03:31:52;;;;;;;4.67;1.77;;;11.20;99.90;;;;;;5139991;27;20446;-70
2024/01/03 03:34:19;;;;;;;4.57;1.40;;;11.20;99.90;;;;;;5140088;27;20519;-71
2024/01/03 03:36:46;;;;;;;5.30;1.23;;;11.20;99.90;;;;;;5137129;27;20446;-70
2024/01/03 03:39:13;;;;;;;5.30;1.60;;;11.20;99.90;;;;;;5135184;27;20965;-70
2024/01/03 03:41:39;;;;;;;9.27;1.33;;;11.20;99.90;;;;;;5135371;27;20442;-70
2024/01/03 03:44:06;;;;;;;4.17;1.27;;;11.10;99.90;;;;;;5135529;27;20446;-70
2024/01/03 03:46:33;;;;;;;6.03;1.53;;;11.00;99.90;;;;;;5135520;27;20457;-70
2024/01/03 03:49:01;;;;;;;4.47;1.20;;;11.10;99.90;;;;;;5135314;27;20442;-70
2024/01/03 03:51:28;;;;;;;7.97;1.90;;;11.00;99.90;;;;;;5134928;27;20438;-70
2024/01/03 03:53:55;;;;;;;6.80;1.47;;;11.10;99.90;;;;;;5134874;27;20443;-70
2024/01/03 03:56:23;;;;;;;4.77;1.33;;;11.10;99.90;;;;;;5134751;27;20460;-70
2024/01/03 03:58:49;;;;;;;4.03;1.40;;;11.10;99.90;;;;;;5134911;27;20457;-70
2024/01/03 04:01:16;;;;;;;6.53;1.60;;;11.10;99.90;;;;;;5134855;27;20461;-70
2024/01/03 04:03:43;;;;;;;7.93;1.23;;;11.10;99.90;;;;;;5135207;28;20449;-70
2024/01/03 04:06:12;;;;;;;8.33;1.23;;;11.10;99.90;;;;;;5134482;28;20993;-70
2024/01/03 04:08:41;;;;;;;4.50;1.27;;;11.10;99.90;;;;;;5134272;28;20457;-70
2024/01/03 04:11:08;;;;;;;5.83;1.70;;;11.10;99.90;;;;;;5116389;28;20523;-70
2024/01/03 04:13:36;;;;;;;10.70;3.10;;;11.10;99.90;;;;;;5134470;28;20814;-70
2024/01/03 04:16:05;;;;;;;5.43;2.80;;;11.20;99.90;;;;;;5134690;28;20445;-70
2024/01/03 04:18:34;;;;;;;5.60;1.60;;;11.20;99.90;;;;;;5134023;28;20798;-71
2024/01/03 04:21:01;;;;;;;6.43;1.50;;;11.30;99.90;;;;;;5134533;28;20458;-70
2024/01/03 04:23:29;;;;;;;6.33;1.90;;;11.20;99.90;;;;;;5117553;27;20959;-70
2024/01/03 04:25:56;;;;;;;4.87;1.57;;;11.20;99.90;;;;;;5138970;27;20474;-70
2024/01/03 04:28:23;;;;;;;8.30;3.47;;;11.20;99.90;;;;;;5138650;27;20442;-70
2024/01/03 04:30:49;;;;;;;10.83;2.77;;;11.20;99.90;;;;;;5138324;27;20461;-70
2024/01/03 04:33:16;;;;;;;9.27;1.70;;;11.10;99.90;;;;;;5120363;27;20441;-69
2024/01/03 04:35:44;;;;;;;5.63;1.77;;;11.10;99.90;;;;;;5139247;27;20438;-69
2024/01/03 04:38:10;;;;;;;10.83;2.00;;;11.10;99.90;;;;;;5138453;27;20438;-69
2024/01/03 04:40:39;;;;;;;8.57;1.87;;;11.00;99.90;;;;;;5138280;27;20466;-69
2024/01/03 04:43:07;;;;;;;14.17;2.40;;;11.00;99.90;;;;;;5138352;27;20444;-69
2024/01/03 04:45:33;;;;;;;7.23;1.80;;;11.00;99.90;;;;;;5138178;27;20565;-69
2024/01/03 04:48:00;;;;;;;10.97;1.83;;;11.00;99.90;;;;;;5138356;27;20438;-68
2024/01/03 04:50:27;;;;;;;7.03;1.83;;;10.90;99.90;;;;;;5137994;27;20458;-69
2024/01/03 04:52:54;;;;;;;5.80;1.60;;;10.80;99.90;;;;;;5137974;27;20439;-69
2024/01/03 04:55:20;;;;;;;9.27;1.57;;;10.70;99.90;;;;;;5119630;27;20437;-69
2024/01/03 04:57:48;;;;;;;6.83;2.07;;;10.60;99.90;;;;;;5137823;27;20442;-68
2024/01/03 05:00:16;;;;;;;6.10;2.53;;;10.60;99.90;;;;;;5137721;27;20803;-68
2024/01/03 05:02:44;;;;;;;9.47;1.53;;;10.60;99.90;;;;;;5137641;27;20438;-69
2024/01/03 05:05:10;;;;;;;11.20;1.90;;;10.60;99.90;;;;;;5137816;27;20849;-69
2024/01/03 05:07:37;;;;;;;10.03;2.27;;;10.60;99.90;;;;;;5138040;27;20442;-69
2024/01/03 05:10:08;;;;;;;9.60;2.10;;;10.50;99.90;;;;;;5137269;27;20468;-69
2024/01/03 05:12:35;;;;;;;7.70;1.90;;;10.50;99.90;;;;;;5120116;27;20857;-69
2024/01/03 05:15:04;;;;;;;9.43;2.40;;;10.50;99.90;;;;;;5137497;27;20466;-68
2024/01/03 05:17:31;;;;;;;13.00;1.90;;;10.40;99.90;;;;;;5137402;27;21059;-69
2024/01/03 05:19:58;;;;;;;8.90;1.70;;;10.40;99.90;;;;;;5137413;27;20461;-69
2024/01/03 05:22:25;;;;;;;8.73;1.70;;;10.40;99.90;;;;;;5119104;27;20457;-69
2024/01/03 05:24:53;;;;;;;9.57;2.10;;;10.40;99.90;;;;;;5137550;27;20442;-69
2024/01/03 05:27:20;;;;;;;12.43;2.03;;;10.40;99.90;;;;;;5137126;27;20442;-69
2024/01/03 05:29:47;;;;;;;7.70;2.00;;;10.40;99.90;;;;;;5136876;27;20499;-69
2024/01/03 05:32:16;;;;;;;10.73;1.70;;;10.40;99.90;;;;;;5136979;27;20434;-69
2024/01/03 05:34:42;;;;;;;6.40;2.03;;;10.40;99.90;;;;;;5135951;27;20958;-69
2024/01/03 05:37:10;;;;;;;10.63;2.00;;;10.50;99.90;;;;;;5136989;27;20448;-69
2024/01/03 05:39:37;;;;;;;12.97;2.60;;;10.40;99.90;;;;;;5136718;27;20474;-69
2024/01/03 05:42:04;;;;;;;8.00;2.10;;;10.40;99.90;;;;;;5136885;27;20446;-69
2024/01/03 05:44:31;;;;;;;10.20;2.70;;;10.40;99.90;;;;;;5137001;27;20449;-69
2024/01/03 05:46:58;;;;;;;7.97;2.07;;;10.40;99.90;;;;;;5136719;27;20489;-69
2024/01/03 05:49:26;;;;;;;6.57;1.90;;;10.40;99.90;;;;;;5138032;27;20834;-68
2024/01/03 05:51:53;;;;;;;9.87;2.60;;;10.40;99.90;;;;;;5139831;27;20958;-68
2024/01/03 05:54:20;;;;;;;12.40;1.90;;;10.40;99.90;;;;;;5139204;27;20453;-68
2024/01/03 05:56:46;;;;;;;11.40;2.50;;;10.40;99.90;;;;;;5138132;27;20441;-68
2024/01/03 05:59:13;;;;;;;11.50;2.60;;;10.50;99.90;;;;;;5138601;27;20452;-68
2024/01/03 06:01:40;;;;;;;11.87;2.27;;;10.40;99.90;;;;;;5137239;27;21056;-68
2024/01/03 06:04:07;;;;;;;10.93;2.10;;;10.40;99.90;;;;;;5137754;27;20457;-68
2024/01/03 06:06:35;;;;;;;8.60;2.63;;;10.40;99.90;;;;;;5137071;27;20854;-68
2024/01/03 06:09:02;;;;;;;9.60;2.87;;;10.40;99.90;;;;;;5136379;27;20927;-68
2024/01/03 06:11:28;;;;;;;8.80;2.87;;;10.40;99.90;;;;;;5136685;27;20449;-69
2024/01/03 06:13:55;;;;;;;10.83;2.20;;;10.40;99.90;;;;;;5136545;27;20449;-69
2024/01/03 06:16:22;;;;;;;14.20;2.33;;;10.50;99.90;;;;;;5136376;27;20441;-69
2024/01/03 06:18:48;;;;;;;7.93;2.37;;;10.50;99.90;;;;;;5136565;27;20453;-69
2024/01/03 06:21:15;;;;;;;16.57;3.50;;;10.50;99.90;;;;;;5136045;27;20464;-69
2024/01/03 06:23:43;;;;;;;12.90;2.57;;;10.60;99.90;;;;;;5136568;27;20440;-69
2024/01/03 06:26:10;;;;;;;13.93;3.00;;;10.60;99.90;;;;;;5136591;27;20474;-68
2024/01/03 06:28:37;;;;;;;16.17;2.43;;;10.60;99.90;;;;;;5136104;27;20450;-68
2024/01/03 06:31:04;;;;;;;12.13;3.17;;;10.50;99.90;;;;;;5136093;27;20454;-68
2024/01/03 06:33:31;;;;;;;15.03;2.53;;;10.50;99.90;;;;;;5135616;27;20437;-69
2024/01/03 06:35:59;;;;;;;16.77;2.97;;;10.50;99.90;;;;;;5136023;27;20438;-69
2024/01/03 06:38:26;;;;;;;9.67;2.57;;;10.50;99.90;;;;;;5117836;27;20441;-69
2024/01/03 06:40:54;;;;;;;13.93;3.33;;;10.50;99.90;;;;;;5135431;27;20461;-69
2024/01/03 06:43:21;;;;;;;11.80;3.20;;;10.50;99.90;;;;;;5135972;27;20437;-69
2024/01/03 06:45:47;;;;;;;17.80;2.73;;;10.50;99.90;;;;;;5135126;27;20470;-69
2024/01/03 06:48:14;;;;;;;15.40;2.90;;;10.60;99.90;;;;;;5134848;27;20502;-69
2024/01/03 06:50:41;;;;;;;9.23;2.20;;;10.50;99.90;;;;;;5135665;27;20469;-70
2024/01/03 06:53:10;;;;;;;15.73;2.70;;;10.50;99.90;;;;;;5135208;27;20973;-70
2024/01/03 06:55:37;;;;;;;15.37;3.00;;;10.60;99.90;;;;;;5135404;27;20449;-70
2024/01/03 06:58:05;;;;;;;12.90;2.20;;;10.60;99.90;;;;;;5135555;27;20426;-70
2024/01/03 07:00:32;;;;;;;12.67;2.50;;;10.70;99.90;;;;;;5135312;27;20469;-70
2024/01/03 07:02:59;;;;;;;10.77;2.37;;;10.70;99.90;;;;;;5135519;27;20477;-70
2024/01/03 07:05:25;;;;;;;13.67;2.73;;;10.70;99.90;;;;;;5135156;27;20927;-70
2024/01/03 07:07:52;;;;;;;21.90;3.40;;;10.70;99.90;;;;;;5116995;27;20449;-70
2024/01/03 07:10:19;;;;;;;14.40;2.80;;;10.70;99.90;;;;;;5135234;27;20461;-70
2024/01/03 07:12:46;;;;;;;11.07;2.20;;;10.70;99.90;;;;;;5135162;27;20441;-70
2024/01/03 07:15:17;;;;;;;10.70;2.70;;;10.80;99.90;;;;;;5117058;27;20450;-70
2024/01/03 07:17:44;;;;;;;11.47;3.00;;;10.90;99.90;;;;;;5135813;27;20779;-70
2024/01/03 07:20:11;;;;;;;11.43;2.40;;;10.80;99.90;;;;;;5135590;27;20462;-70
2024/01/03 07:22:38;;;;;;;13.40;2.47;;;10.80;99.90;;;;;;5136630;27;20438;-70
2024/01/03 07:25:06;;;;;;;8.00;2.30;;;10.90;99.90;;;;;;5135383;27;20446;-70
2024/01/03 07:27:33;;;;;;;17.67;2.67;;;10.90;99.90;;;;;;5135454;27;20470;-70
2024/01/03 07:29:59;;;;;;;8.73;1.90;;;10.90;99.90;;;;;;5134598;27;20521;-69
2024/01/03 07:32:28;;;;;;;8.80;3.37;;;11.00;99.90;;;;;;5134838;27;20441;-69
2024/01/03 07:34:55;;;;;;;7.83;2.20;;;11.00;99.90;;;;;;5134463;27;20972;-69
2024/01/03 07:37:22;;;;;;;8.43;2.53;;;11.00;99.90;;;;;;5134902;27;20446;-69
2024/01/03 07:39:48;;;;;;;10.20;1.93;;;11.10;99.90;;;;;;5135152;27;20462;-69
2024/01/03 07:42:15;;;;;;;3.70;2.10;;;11.00;99.90;;;;;;5134776;27;20446;-68
2024/01/03 07:44:43;;;;;;;4.83;1.80;;;11.00;99.90;;;;;;5134686;27;20434;-68
2024/01/03 07:47:10;;;;;;;8.80;2.37;;;10.80;99.90;;;;;;5134218;27;20850;-68
2024/01/03 07:49:39;;;;;;;9.03;1.80;;;10.80;99.90;;;;;;5134524;27;20454;-69
2024/01/03 07:52:06;;;;;;;6.43;1.87;;;10.80;99.90;;;;;;5134777;27;20442;-68
2024/01/03 07:54:33;;;;;;;15.23;2.50;;;10.70;99.90;;;;;;5134497;27;20442;-69
2024/01/03 07:57:01;;;;;;;7.83;1.83;;;10.60;99.90;;;;;;5116789;28;20457;-70
2024/01/03 07:59:27;;;;;;;13.23;2.87;;;10.60;99.90;;;;;;5134347;27;20829;-69
2024/01/03 08:01:54;;;;;;;12.70;2.07;;;10.60;99.90;;;;;;5134475;27;20441;-69
2024/01/03 08:04:21;;;;;;;13.30;2.13;;;10.60;99.90;;;;;;5139455;28;20616;-69
2024/01/03 08:06:49;;;;;;;8.83;1.57;;;10.60;99.90;;;;;;5138720;28;20477;-69
2024/01/03 08:09:16;;;;;;;8.57;1.87;;;10.50;99.90;;;;;;5136519;28;20489;-69
2024/01/03 08:11:43;;;;;;;7.80;1.50;;;10.50;99.90;;;;;;5136215;28;20935;-69
2024/01/03 08:14:10;;;;;;;13.00;2.00;;;10.50;99.90;;;;;;5134835;28;20437;-69
2024/01/03 08:16:36;;;;;;;6.43;1.90;;;10.50;99.90;;;;;;5134744;28;20460;-69
2024/01/03 08:19:03;;;;;;;5.30;1.60;;;10.50;99.90;;;;;;5134840;28;20446;-69
2024/01/03 08:21:30;;;;;;;6.40;1.73;;;10.40;99.90;;;;;;5116598;28;20438;-70
2024/01/03 08:23:58;;;;;;;6.80;2.10;;;10.50;99.90;;;;;;5134744;28;20446;-70
2024/01/03 08:26:25;;;;;;;14.03;2.43;;;10.50;99.90;;;;;;5134459;28;20477;-70
2024/01/03 08:28:52;;;;;;;11.00;2.60;;;10.50;99.90;;;;;;5133945;28;20958;-70
2024/01/03 08:31:19;;;;;;;9.87;1.90;;;10.40;99.90;;;;;;5134230;28;20470;-70
2024/01/03 08:33:47;;;;;;;7.97;2.23;;;10.40;99.90;;;;;;5115887;28;20894;-70
2024/01/03 08:36:14;;;;;;;8.00;2.20;;;10.50;99.90;;;;;;5134618;28;20465;-70
2024/01/03 08:38:42;;;;;;;9.57;1.83;;;10.60;99.90;;;;;;5134440;28;20445;-70
2024/01/03 08:41:18;;;;;;;8.07;2.10;;;10.60;99.90;;;;;;5134203;28;20470;-70
2024/01/03 08:43:45;;;;;;;11.07;1.90;;;10.70;99.90;;;;;;5134420;28;20441;-70
2024/01/03 08:46:12;;;;;;;8.73;1.90;;;10.70;99.90;;;;;;5134385;28;20489;-70
2024/01/03 08:48:41;;;;;;;8.80;2.03;;;10.80;99.90;;;;;;5135122;28;20438;-70
2024/01/03 08:51:12;;;;;;;10.23;2.50;;;10.80;99.90;;;;;;5141678;28;20454;-70
2024/01/03 08:53:39;;;;;;;6.73;2.00;;;10.90;99.90;;;;;;5142447;28;20778;-70
2024/01/03 08:56:13;;;;;;;5.83;1.50;;;10.90;99.90;;;;;;5141946;28;20446;-70
2024/01/03 08:58:41;;;;;;;12.50;2.80;;;10.90;99.90;;;;;;5141724;28;20423;-69
2024/01/03 09:01:08;;;;;;;5.90;1.50;;;10.90;99.90;;;;;;5139867;28;20847;-70
2024/01/03 09:03:36;;;;;;;4.00;1.57;;;10.90;99.90;;;;;;5123323;28;20450;-70
2024/01/03 09:06:05;;;;;;;4.23;1.20;;;10.90;99.90;;;;;;5137446;28;20480;-70
2024/01/03 09:08:32;;;;;;;6.10;1.27;;;11.00;99.90;;;;;;5137117;28;20498;-70
2024/01/03 09:11:01;;;;;;;7.00;1.50;;;11.00;99.90;;;;;;5138594;27;20474;-70
2024/01/03 09:13:31;;;;;;;3.23;1.20;;;11.00;99.90;;;;;;5121855;27;20807;-70
2024/01/03 09:16:02;;;;;;;4.97;1.33;;;11.00;99.90;;;;;;5140405;27;20450;-70
2024/01/03 09:18:29;;;;;;;5.70;1.50;;;11.10;99.90;;;;;;5139599;27;20426;-70
2024/01/03 09:20:58;;;;;;;5.17;1.33;;;11.00;99.90;;;;;;5138943;27;21001;-70
2024/01/03 09:23:24;;;;;;;6.90;1.50;;;11.00;99.90;;;;;;5138832;27;20445;-70
2024/01/03 09:25:55;;;;;;;6.27;1.30;;;11.00;99.90;;;;;;5138935;27;20445;-70
2024/01/03 09:28:22;;;;;;;4.73;1.27;;;11.10;99.90;;;;;;5138385;27;20425;-70
2024/01/03 09:30:48;;;;;;;3.63;1.10;;;11.10;99.90;;;;;;5138067;27;20454;-70
2024/01/03 09:33:17;;;;;;;4.40;1.20;;;11.10;99.90;;;;;;5120172;27;20462;-70
2024/01/03 09:35:44;;;;;;;6.90;2.20;;;11.10;99.90;;;;;;5137909;27;20445;-70
2024/01/03 09:38:11;;;;;;;8.00;2.50;;;11.20;99.90;;;;;;5138142;27;20430;-70
2024/01/03 09:40:37;;;;;;;4.40;2.10;;;11.20;99.90;;;;;;5137581;27;20454;-70
2024/01/03 09:43:05;;;;;;;13.50;1.90;;;11.20;99.90;;;;;;5137621;27;20449;-70
2024/01/03 09:45:32;;;;;;;12.17;2.40;;;11.30;99.90;;;;;;5137088;27;20923;-70
2024/01/03 09:47:59;;;;;;;9.57;1.43;;;11.10;99.90;;;;;;5137677;27;20469;-70
2024/01/03 09:50:27;;;;;;;9.07;1.90;;;11.10;99.90;;;;;;5137548;27;20473;-70
2024/01/03 09:52:56;;;;;;;11.67;2.47;;;11.20;99.90;;;;;;5136924;27;20441;-70
2024/01/03 09:55:22;;;;;;;7.77;1.90;;;11.10;99.90;;;;;;5136871;27;20449;-70
2024/01/03 09:57:51;;;;;;;8.03;1.80;;;11.20;99.90;;;;;;5137194;27;20438;-70
2024/01/03 10:00:18;;;;;;;4.93;1.53;;;11.10;99.90;;;;;;5137745;27;20458;-69
2024/01/03 10:02:47;;;;;;;13.53;3.37;;;11.10;99.90;;;;;;5137315;27;20438;-69
2024/01/03 10:05:19;;;;;;;8.10;1.70;;;11.00;99.90;;;;;;5137304;27;20477;-68
2024/01/03 10:07:47;;;;;;;10.43;2.50;;;10.90;99.90;;;;;;5136718;27;20473;-69
2024/01/03 10:10:28;;;;;;;11.67;2.50;;;10.80;99.90;;;;;;5136962;27;20458;-69
2024/01/03 10:12:55;;;;;;;10.33;2.83;;;10.80;99.90;;;;;;5136938;27;20426;-69
2024/01/03 10:15:23;;;;;;;14.10;2.97;;;10.60;99.90;;;;;;5136142;27;20445;-68
2024/01/03 10:17:49;;;;;;;9.30;2.30;;;10.50;99.90;;;;;;5136833;27;20438;-69
2024/01/03 10:20:25;;;;;;;11.03;2.90;;;10.50;99.90;;;;;;5136602;27;20832;-68
2024/01/03 10:23:06;;;;;;;15.83;3.17;;;10.50;99.90;;;;;;5140486;27;20438;-68
2024/01/03 10:25:33;;;;;;;12.43;3.20;;;10.50;99.90;;;;;;5139476;27;20426;-68
2024/01/03 10:28:01;;;;;;;11.40;2.87;;;10.60;99.90;;;;;;5137590;27;20478;-68
2024/01/03 10:30:28;;;;;;;9.83;3.20;;;10.60;99.90;;;;;;5137331;27;20485;-68
2024/01/03 10:32:58;;;;;;;14.50;3.50;;;10.60;99.90;;;;;;5136820;27;20434;-68
2024/01/03 10:35:28;;;;;;;9.20;2.80;;;10.50;99.90;;;;;;5136329;27;20418;-68
2024/01/03 10:37:56;;;;;;;10.40;3.20;;;10.50;99.90;;;;;;5136704;27;20446;-69
2024/01/03 10:40:25;;;;;;;16.33;3.40;;;10.50;99.90;;;;;;5136052;27;20481;-69
2024/01/03 10:42:52;;;;;;;16.30;3.00;;;10.50;99.90;;;;;;5135886;27;20441;-68
2024/01/03 10:45:19;;;;;;;15.53;2.67;;;10.60;99.90;;;;;;5135774;27;20434;-69
2024/01/03 10:47:46;;;;;;;8.97;2.10;;;10.70;99.90;;;;;;5135709;27;20504;-69
2024/01/03 10:50:13;;;;;;;8.30;2.20;;;10.80;99.90;;;;;;5135616;27;20469;-69
2024/01/03 10:52:43;;;;;;;12.37;2.63;;;10.80;99.90;;;;;;5136363;27;20465;-69
2024/01/03 10:55:13;;;;;;;14.23;2.10;;;11.00;99.90;;;;;;5136121;27;20438;-69
2024/01/03 10:57:48;;;;;;;16.07;2.93;;;11.10;99.90;;;;;;5117473;27;20450;-69
2024/01/03 11:00:20;;;;;;;11.23;2.63;;;11.20;99.90;;;;;;5136043;27;20453;-69
2024/01/03 11:02:56;;;;;;;13.63;2.80;;;11.20;99.90;;;;;;5136172;27;20418;-70
2024/01/03 11:05:33;;;;;;;12.73;2.80;;;11.30;99.90;;;;;;5135706;27;20422;-69
2024/01/03 11:08:05;;;;;;;11.10;2.30;;;11.40;99.90;;;;;;5135637;27;20841;-69
2024/01/03 11:10:49;;;;;;;9.30;2.40;;;11.60;99.90;;;;;;5135558;27;20545;-69
2024/01/03 11:13:35;;;;;;;8.00;1.80;;;11.60;99.90;;;;;;5135695;27;20442;-69
2024/01/03 11:16:05;;;;;;;11.00;2.27;;;11.70;99.90;;;;;;5135515;27;20425;-69
2024/01/03 11:18:52;;;;;;;12.17;2.70;;;11.70;99.90;;;;;;5135440;27;20418;-69
2024/01/03 11:21:46;;;;;;;4.50;2.03;;;11.60;99.90;;;;;;5135655;27;20458;-69
2024/01/03 11:24:55;;;;;;;6.33;1.70;;;11.60;99.90;;;;;;5086990;27;20958;-69
2024/01/03 11:27:23;;;;;;;13.10;2.33;;;11.60;99.90;;;;;;5135507;27;20531;-69
2024/01/03 11:29:53;;;;;;;14.40;2.63;;;11.50;99.90;;;;;;5135083;27;20522;-69
2024/01/03 11:32:36;;;;;;;7.20;1.73;;;11.50;99.90;;;;;;5134707;27;20842;-69
2024/01/03 11:35:06;;;;;;;5.73;1.87;;;11.60;99.90;;;;;;5131669;27;20430;-69
2024/01/03 11:37:40;;;;;;;15.90;2.33;;;11.60;99.90;;;;;;5135004;27;20955;-69
2024/01/03 11:40:19;;;;;;;6.40;2.27;;;11.70;99.90;;;;;;5134578;27;20453;-69
2024/01/03 11:42:46;;;;;;;8.13;2.20;;;11.80;99.90;;;;;;5134523;27;20441;-69
2024/01/03 11:45:17;;;;;;;14.00;2.83;;;11.80;99.90;;;;;;5134976;27;20487;-69
2024/01/03 11:47:45;;;;;;;11.70;2.40;;;11.90;99.90;;;;;;5134819;27;20457;-69
2024/01/03 11:50:14;;;;;;;10.33;2.07;;;11.90;99.90;;;;;;5134618;27;20469;-69
2024/01/03 11:52:42;;;;;;;17.37;2.77;;;11.90;99.90;;;;;;5134586;27;20503;-69
2024/01/03 11:55:10;;;;;;;10.50;2.97;;;11.80;99.90;;;;;;5134725;27;20438;-70
2024/01/03 11:57:42;;;;;;;7.67;2.23;;;11.80;99.90;;;;;;5134921;27;20445;-70
2024/01/03 12:00:10;;;;;;;10.63;2.50;;;11.80;99.90;;;;;;5134716;27;20511;-70
2024/01/03 12:02:38;;;;;;;12.77;2.20;;;11.90;99.90;;;;;;5134411;27;20442;-70
2024/01/03 12:05:06;;;;;;;8.53;2.47;;;12.10;99.90;;;;;;5134770;28;20434;-70
2024/01/03 12:07:35;;;;;;;10.67;2.20;;;12.40;99.90;;;;;;5134502;28;20473;-70
2024/01/03 12:10:03;;;;;;;9.20;2.50;;;12.60;99.90;;;;;;5134382;28;20466;-70
2024/01/03 12:12:31;;;;;;;10.80;3.40;;;12.70;99.90;;;;;;5134233;28;20448;-70
2024/01/03 12:14:58;;;;;;;11.70;2.30;;;12.70;99.90;;;;;;5134543;28;20536;-70
2024/01/03 12:17:29;;;;;;;8.97;2.50;;;12.70;99.90;;;;;;5115776;28;20442;-70
2024/01/03 12:20:07;;;;;;;7.57;2.00;;;12.70;99.90;;;;;;5134318;28;20461;-70
2024/01/03 12:22:34;;;;;;;11.97;2.93;;;12.70;99.90;;;;;;5134396;28;20480;-70
2024/01/03 12:25:01;;;;;;;10.90;2.43;;;12.60;99.90;;;;;;5134331;28;20947;-70
2024/01/03 12:27:27;;;;;;;9.07;2.03;;;12.60;99.90;;;;;;5134797;28;20478;-70
2024/01/03 12:30:13;;;;;;;6.10;2.40;;;12.50;99.90;;;;;;5134489;28;20466;-70
2024/01/03 12:32:40;;;;;;;9.27;2.23;;;12.50;99.90;;;;;;5116177;28;20433;-70
2024/01/03 12:35:09;;;;;;;12.57;2.20;;;12.40;99.90;;;;;;5133892;28;20497;-70
2024/01/03 12:37:36;;;;;;;13.57;2.40;;;12.30;99.90;;;;;;5134155;28;20437;-70
2024/01/03 12:40:03;;;;;;;5.40;1.90;;;12.10;99.90;;;;;;5136052;28;20458;-69
2024/01/03 12:42:30;;;;;;;10.20;2.10;;;12.10;99.90;;;;;;5138809;28;20433;-69
2024/01/03 12:44:57;;;;;;;13.80;2.63;;;12.10;99.90;;;;;;5139680;27;20437;-69
2024/01/03 12:47:23;;;;;;;8.30;2.70;;;12.00;99.90;;;;;;5139543;27;20989;-70
2024/01/03 12:49:51;;;;;;;9.20;2.40;;;12.10;99.90;;;;;;5139203;27;20454;-70